sensor_id;sensor_type;location;lat;lon;timestamp;pressure;altitude;pressure_sealevel;temperature;humidity
75418;BME280;63997;52.112;5.420;2023-08-31T00:02:23;100865.59;;;11.66;95.04
75418;BME280;63997;52.112;5.420;2023-08-31T00:04:52;100863.41;;;11.68;95.11
75418;BME280;63997;52.112;5.420;2023-08-31T00:07:21;100862.63;;;11.68;95.23
75418;BME280;63997;52.112;5.420;2023-08-31T00:09:48;100865.31;;;11.68;95.20
75418;BME280;63997;52.112;5.420;2023-08-31T00:12:15;100868.28;;;11.66;95.38
75418;BME280;63997;52.112;5.420;2023-08-31T00:14:41;100868.94;;;11.63;95.24
75418;BME280;63997;52.112;5.420;2023-08-31T00:17:08;100862.06;;;11.62;95.57
75418;BME280;63997;52.112;5.420;2023-08-31T00:19:35;100863.91;;;11.61;95.46
75418;BME280;63997;52.112;5.420;2023-08-31T00:22:01;100863.47;;;11.59;95.37
75418;BME280;63997;52.112;5.420;2023-08-31T00:24:28;100861.91;;;11.58;95.68
75418;BME280;63997;52.112;5.420;2023-08-31T00:26:58;100861.13;;;11.58;95.41
75418;BME280;63997;52.112;5.420;2023-08-31T00:29:24;100858.00;;;11.56;95.83
75418;BME280;63997;52.112;5.420;2023-08-31T00:31:51;100850.00;;;11.56;95.91
75418;BME280;63997;52.112;5.420;2023-08-31T00:34:19;100853.47;;;11.56;95.85
75418;BME280;63997;52.112;5.420;2023-08-31T00:36:46;100860.03;;;11.59;96.05
75418;BME280;63997;52.112;5.420;2023-08-31T00:39:14;100867.25;;;11.58;96.16
75418;BME280;63997;52.112;5.420;2023-08-31T00:41:41;100862.69;;;11.59;96.22
75418;BME280;63997;52.112;5.420;2023-08-31T00:44:07;100872.25;;;11.60;96.25
75418;BME280;63997;52.112;5.420;2023-08-31T00:46:35;100872.25;;;11.60;96.24
75418;BME280;63997;52.112;5.420;2023-08-31T00:49:02;100869.56;;;11.60;96.33
75418;BME280;63997;52.112;5.420;2023-08-31T00:51:30;100864.06;;;11.65;96.54
75418;BME280;63997;52.112;5.420;2023-08-31T00:53:57;100855.72;;;11.66;96.69
75418;BME280;63997;52.112;5.420;2023-08-31T00:56:25;100857.75;;;11.70;96.88
75418;BME280;63997;52.112;5.420;2023-08-31T00:58:52;100855.22;;;11.73;96.81
75418;BME280;63997;52.112;5.420;2023-08-31T01:01:39;100853.78;;;11.76;97.33
75418;BME280;63997;52.112;5.420;2023-08-31T01:04:25;100853.16;;;11.79;97.10
75418;BME280;63997;52.112;5.420;2023-08-31T01:06:57;100860.81;;;11.80;97.29
75418;BME280;63997;52.112;5.420;2023-08-31T01:09:32;100858.16;;;11.80;96.92
75418;BME280;63997;52.112;5.420;2023-08-31T01:12:07;100864.25;;;11.81;96.91
75418;BME280;63997;52.112;5.420;2023-08-31T01:14:42;100868.03;;;11.80;96.93
75418;BME280;63997;52.112;5.420;2023-08-31T01:17:12;100858.78;;;11.77;97.39
75418;BME280;63997;52.112;5.420;2023-08-31T01:19:51;100864.13;;;11.77;97.13
75418;BME280;63997;52.112;5.420;2023-08-31T01:22:27;100857.22;;;11.76;97.23
75418;BME280;63997;52.112;5.420;2023-08-31T01:24:56;100858.00;;;11.77;97.09
75418;BME280;63997;52.112;5.420;2023-08-31T01:27:24;100859.44;;;11.74;97.37
75418;BME280;63997;52.112;5.420;2023-08-31T01:29:51;100862.88;;;11.75;97.06
75418;BME280;63997;52.112;5.420;2023-08-31T01:32:18;100864.78;;;11.74;97.41
75418;BME280;63997;52.112;5.420;2023-08-31T01:34:44;100866.66;;;11.74;97.33
75418;BME280;63997;52.112;5.420;2023-08-31T01:37:17;100865.41;;;11.71;97.56
75418;BME280;63997;52.112;5.420;2023-08-31T01:39:49;100868.06;;;11.71;97.32
75418;BME280;63997;52.112;5.420;2023-08-31T01:42:18;100864.63;;;11.71;97.11
75418;BME280;63997;52.112;5.420;2023-08-31T01:44:46;100863.88;;;11.70;97.50
75418;BME280;63997;52.112;5.420;2023-08-31T01:47:15;100868.41;;;11.70;97.40
75418;BME280;63997;52.112;5.420;2023-08-31T01:49:43;100868.56;;;11.73;97.82
75418;BME280;63997;52.112;5.420;2023-08-31T01:52:10;100861.78;;;11.76;97.69
75418;BME280;63997;52.112;5.420;2023-08-31T01:54:36;100857.66;;;11.78;98.16
75418;BME280;63997;52.112;5.420;2023-08-31T01:57:06;100869.28;;;11.82;98.48
75418;BME280;63997;52.112;5.420;2023-08-31T01:59:33;100875.53;;;11.86;98.64
75418;BME280;63997;52.112;5.420;2023-08-31T02:02:01;100882.41;;;11.87;98.52
75418;BME280;63997;52.112;5.420;2023-08-31T02:04:27;100895.88;;;11.91;98.62
75418;BME280;63997;52.112;5.420;2023-08-31T02:06:54;100890.66;;;11.95;98.84
75418;BME280;63997;52.112;5.420;2023-08-31T02:09:20;100893.88;;;12.00;98.85
75418;BME280;63997;52.112;5.420;2023-08-31T02:11:47;100895.13;;;12.03;99.02
75418;BME280;63997;52.112;5.420;2023-08-31T02:14:13;100888.69;;;12.04;98.53
75418;BME280;63997;52.112;5.420;2023-08-31T02:16:40;100888.84;;;12.07;98.92
75418;BME280;63997;52.112;5.420;2023-08-31T02:19:06;100885.06;;;12.08;99.05
75418;BME280;63997;52.112;5.420;2023-08-31T02:21:33;100869.50;;;12.10;99.03
75418;BME280;63997;52.112;5.420;2023-08-31T02:24:00;100880.63;;;12.12;98.90
75418;BME280;63997;52.112;5.420;2023-08-31T02:26:29;100889.22;;;12.18;98.63
75418;BME280;63997;52.112;5.420;2023-08-31T02:28:55;100878.97;;;12.20;98.87
75418;BME280;63997;52.112;5.420;2023-08-31T02:31:22;100898.56;;;12.24;98.79
75418;BME280;63997;52.112;5.420;2023-08-31T02:33:48;100895.22;;;12.27;98.31
75418;BME280;63997;52.112;5.420;2023-08-31T02:36:16;100893.78;;;12.30;98.42
75418;BME280;63997;52.112;5.420;2023-08-31T02:38:42;100882.78;;;12.31;98.34
75418;BME280;63997;52.112;5.420;2023-08-31T02:41:09;100887.00;;;12.32;98.22
75418;BME280;63997;52.112;5.420;2023-08-31T02:43:35;100886.69;;;12.34;97.84
75418;BME280;63997;52.112;5.420;2023-08-31T02:46:02;100883.22;;;12.33;97.51
75418;BME280;63997;52.112;5.420;2023-08-31T02:48:29;100884.78;;;12.34;97.50
75418;BME280;63997;52.112;5.420;2023-08-31T02:50:57;100885.13;;;12.33;97.51
75418;BME280;63997;52.112;5.420;2023-08-31T02:53:24;100883.22;;;12.33;97.31
75418;BME280;63997;52.112;5.420;2023-08-31T02:55:51;100874.47;;;12.33;97.09
75418;BME280;63997;52.112;5.420;2023-08-31T02:58:17;100879.00;;;12.32;97.22
75418;BME280;63997;52.112;5.420;2023-08-31T03:00:45;100872.91;;;12.32;97.09
75418;BME280;63997;52.112;5.420;2023-08-31T03:03:15;100873.69;;;12.32;96.81
75418;BME280;63997;52.112;5.420;2023-08-31T03:05:42;100874.47;;;12.33;96.76
75418;BME280;63997;52.112;5.420;2023-08-31T03:08:09;100874.13;;;12.34;97.19
75418;BME280;63997;52.112;5.420;2023-08-31T03:10:36;100874.59;;;12.36;97.01
75418;BME280;63997;52.112;5.420;2023-08-31T03:13:02;100874.59;;;12.36;97.21
75418;BME280;63997;52.112;5.420;2023-08-31T03:15:29;100870.03;;;12.37;97.28
75418;BME280;63997;52.112;5.420;2023-08-31T03:17:55;100871.91;;;12.36;97.45
75418;BME280;63997;52.112;5.420;2023-08-31T03:20:23;100868.13;;;12.37;97.40
75418;BME280;63997;52.112;5.420;2023-08-31T03:22:51;100878.03;;;12.37;97.03
75418;BME280;63997;52.112;5.420;2023-08-31T03:25:18;100885.69;;;12.38;97.65
75418;BME280;63997;52.112;5.420;2023-08-31T03:27:44;100893.06;;;12.41;97.54
75418;BME280;63997;52.112;5.420;2023-08-31T03:30:12;100889.28;;;12.42;97.60
75418;BME280;63997;52.112;5.420;2023-08-31T03:32:54;100893.50;;;12.43;97.22
75418;BME280;63997;52.112;5.420;2023-08-31T03:35:20;100892.38;;;12.44;97.42
75418;BME280;63997;52.112;5.420;2023-08-31T03:37:48;100876.28;;;12.41;97.31
75418;BME280;63997;52.112;5.420;2023-08-31T03:40:25;100870.81;;;12.37;97.44
75418;BME280;63997;52.112;5.420;2023-08-31T03:42:56;100877.59;;;12.35;97.49
75418;BME280;63997;52.112;5.420;2023-08-31T03:45:25;100870.56;;;12.30;97.26
75418;BME280;63997;52.112;5.420;2023-08-31T03:47:51;100879.69;;;12.29;96.93
75418;BME280;63997;52.112;5.420;2023-08-31T03:50:18;100887.34;;;12.31;97.48
75418;BME280;63997;52.112;5.420;2023-08-31T03:52:45;100888.91;;;12.32;97.18
75418;BME280;63997;52.112;5.420;2023-08-31T03:55:11;100896.56;;;12.33;97.52
75418;BME280;63997;52.112;5.420;2023-08-31T03:57:37;100901.13;;;12.33;97.48
75418;BME280;63997;52.112;5.420;2023-08-31T04:00:04;100902.69;;;12.34;97.32
75418;BME280;63997;52.112;5.420;2023-08-31T04:02:35;100904.56;;;12.33;97.31
75418;BME280;63997;52.112;5.420;2023-08-31T04:05:02;100904.91;;;12.32;97.59
75418;BME280;63997;52.112;5.420;2023-08-31T04:07:33;100903.78;;;12.33;97.88
75418;BME280;63997;52.112;5.420;2023-08-31T04:10:00;100894.25;;;12.32;97.72
75418;BME280;63997;52.112;5.420;2023-08-31T04:12:26;100907.56;;;12.32;97.39
75418;BME280;63997;52.112;5.420;2023-08-31T04:14:56;100905.69;;;12.32;97.44
75418;BME280;63997;52.112;5.420;2023-08-31T04:17:24;100912.56;;;12.33;97.83
75418;BME280;63997;52.112;5.420;2023-08-31T04:19:52;100913.34;;;12.34;97.77
75418;BME280;63997;52.112;5.420;2023-08-31T04:22:19;100908.34;;;12.32;97.65
75418;BME280;63997;52.112;5.420;2023-08-31T04:24:49;100907.22;;;12.33;97.76
75418;BME280;63997;52.112;5.420;2023-08-31T04:27:15;100911.78;;;12.33;97.92
75418;BME280;63997;52.112;5.420;2023-08-31T04:29:42;100914.03;;;12.31;97.89
75418;BME280;63997;52.112;5.420;2023-08-31T04:32:08;100903.34;;;12.31;98.01
75418;BME280;63997;52.112;5.420;2023-08-31T04:34:35;100908.69;;;12.31;98.02
75418;BME280;63997;52.112;5.420;2023-08-31T04:37:02;100910.25;;;12.32;97.96
75418;BME280;63997;52.112;5.420;2023-08-31T04:39:28;100917.13;;;12.33;98.26
75418;BME280;63997;52.112;5.420;2023-08-31T04:41:55;100917.91;;;12.33;98.41
75418;BME280;63997;52.112;5.420;2023-08-31T04:44:21;100919.47;;;12.34;98.36
75418;BME280;63997;52.112;5.420;2023-08-31T04:46:48;100918.38;;;12.35;98.54
75418;BME280;63997;52.112;5.420;2023-08-31T04:49:15;100924.16;;;12.37;98.51
75418;BME280;63997;52.112;5.420;2023-08-31T04:51:43;100927.94;;;12.36;98.59
75418;BME280;63997;52.112;5.420;2023-08-31T04:54:10;100934.47;;;12.39;98.81
75418;BME280;63997;52.112;5.420;2023-08-31T04:56:40;100935.25;;;12.39;99.01
75418;BME280;63997;52.112;5.420;2023-08-31T04:59:06;100948.28;;;12.41;98.73
75418;BME280;63997;52.112;5.420;2023-08-31T05:01:32;100949.84;;;12.42;99.12
75418;BME280;63997;52.112;5.420;2023-08-31T05:03:59;100949.06;;;12.41;98.78
75418;BME280;63997;52.112;5.420;2023-08-31T05:06:25;100943.38;;;12.43;98.95
75418;BME280;63997;52.112;5.420;2023-08-31T05:08:52;100954.84;;;12.43;98.67
75418;BME280;63997;52.112;5.420;2023-08-31T05:11:19;100957.16;;;12.45;99.09
75418;BME280;63997;52.112;5.420;2023-08-31T05:13:45;100951.84;;;12.45;99.06
75418;BME280;63997;52.112;5.420;2023-08-31T05:16:11;100961.41;;;12.46;98.91
75418;BME280;63997;52.112;5.420;2023-08-31T05:18:39;100957.63;;;12.47;98.77
75418;BME280;63997;52.112;5.420;2023-08-31T05:21:10;100959.53;;;12.47;98.95
75418;BME280;63997;52.112;5.420;2023-08-31T05:23:37;100964.19;;;12.50;98.98
75418;BME280;63997;52.112;5.420;2023-08-31T05:26:04;100962.00;;;12.52;98.98
75418;BME280;63997;52.112;5.420;2023-08-31T05:28:31;100962.88;;;12.56;99.38
75418;BME280;63997;52.112;5.420;2023-08-31T05:31:01;100968.34;;;12.59;99.39
75418;BME280;63997;52.112;5.420;2023-08-31T05:33:34;100969.56;;;12.62;99.15
75418;BME280;63997;52.112;5.420;2023-08-31T05:36:02;100971.59;;;12.65;99.58
75418;BME280;63997;52.112;5.420;2023-08-31T05:38:34;100969.81;;;12.69;99.11
75418;BME280;63997;52.112;5.420;2023-08-31T05:41:12;100972.72;;;12.76;99.22
75418;BME280;63997;52.112;5.420;2023-08-31T05:43:39;100975.19;;;12.81;99.28
75418;BME280;63997;52.112;5.420;2023-08-31T05:46:07;100966.50;;;12.84;98.94
75418;BME280;63997;52.112;5.420;2023-08-31T05:48:35;100970.84;;;12.89;98.80
75418;BME280;63997;52.112;5.420;2023-08-31T05:51:03;100970.97;;;12.92;98.67
75418;BME280;63997;52.112;5.420;2023-08-31T05:53:30;100970.31;;;12.95;98.70
75418;BME280;63997;52.112;5.420;2023-08-31T05:55:58;100979.22;;;13.00;98.65
75418;BME280;63997;52.112;5.420;2023-08-31T05:58:35;100988.47;;;13.02;98.43
75418;BME280;63997;52.112;5.420;2023-08-31T06:01:03;100996.25;;;13.07;98.44
75418;BME280;63997;52.112;5.420;2023-08-31T06:03:30;101001.72;;;13.11;98.41
75418;BME280;63997;52.112;5.420;2023-08-31T06:06:01;101013.50;;;13.10;98.59
75418;BME280;63997;52.112;5.420;2023-08-31T06:08:28;101017.16;;;13.05;98.48
75418;BME280;63997;52.112;5.420;2023-08-31T06:10:58;101008.94;;;12.98;98.16
75418;BME280;63997;52.112;5.420;2023-08-31T06:13:29;101011.59;;;12.98;97.81
75418;BME280;63997;52.112;5.420;2023-08-31T06:15:58;101015.03;;;12.98;97.96
75418;BME280;63997;52.112;5.420;2023-08-31T06:18:26;101013.16;;;12.99;98.29
75418;BME280;63997;52.112;5.420;2023-08-31T06:20:55;101015.03;;;12.98;98.03
75418;BME280;63997;52.112;5.420;2023-08-31T06:23:22;101012.03;;;13.00;97.90
75418;BME280;63997;52.112;5.420;2023-08-31T06:25:49;101014.84;;;13.04;98.06
75418;BME280;63997;52.112;5.420;2023-08-31T06:28:17;101013.94;;;13.12;98.10
75418;BME280;63997;52.112;5.420;2023-08-31T06:30:44;101020.00;;;13.21;97.98
75418;BME280;63997;52.112;5.420;2023-08-31T06:33:16;101024.78;;;13.28;97.99
75418;BME280;63997;52.112;5.420;2023-08-31T06:35:47;101019.00;;;13.26;97.93
75418;BME280;63997;52.112;5.420;2023-08-31T06:38:19;101017.78;;;13.23;97.75
75418;BME280;63997;52.112;5.420;2023-08-31T06:40:49;101016.53;;;13.20;97.49
75418;BME280;63997;52.112;5.420;2023-08-31T06:43:15;101008.38;;;13.17;97.77
75418;BME280;63997;52.112;5.420;2023-08-31T06:45:41;101017.09;;;13.14;97.57
75418;BME280;63997;52.112;5.420;2023-08-31T06:48:08;101021.41;;;13.18;97.50
75418;BME280;63997;52.112;5.420;2023-08-31T06:50:35;101018.88;;;13.22;97.84
75418;BME280;63997;52.112;5.420;2023-08-31T06:53:04;101025.47;;;13.25;97.71
75418;BME280;63997;52.112;5.420;2023-08-31T06:55:31;101021.78;;;13.29;97.68
75418;BME280;63997;52.112;5.420;2023-08-31T06:57:58;101030.06;;;13.36;97.27
75418;BME280;63997;52.112;5.420;2023-08-31T07:00:25;101032.03;;;13.39;97.22
75418;BME280;63997;52.112;5.420;2023-08-31T07:02:53;101035.50;;;13.52;97.72
75418;BME280;63997;52.112;5.420;2023-08-31T07:05:26;101037.59;;;13.83;96.95
75418;BME280;63997;52.112;5.420;2023-08-31T07:07:53;101025.91;;;15.44;96.21
75418;BME280;63997;52.112;5.420;2023-08-31T07:10:23;101036.63;;;15.75;89.73
75418;BME280;63997;52.112;5.420;2023-08-31T07:12:49;101046.28;;;15.48;90.06
75418;BME280;63997;52.112;5.420;2023-08-31T07:15:16;101036.59;;;15.59;89.58
75418;BME280;63997;52.112;5.420;2023-08-31T07:17:46;101043.38;;;15.38;89.70
75418;BME280;63997;52.112;5.420;2023-08-31T07:20:16;101047.69;;;15.11;90.45
75418;BME280;63997;52.112;5.420;2023-08-31T07:22:44;101052.91;;;14.91;90.18
75418;BME280;63997;52.112;5.420;2023-08-31T07:25:13;101065.94;;;14.77;90.91
75418;BME280;63997;52.112;5.420;2023-08-31T07:27:41;101057.63;;;14.66;91.23
75418;BME280;63997;52.112;5.420;2023-08-31T07:30:08;101058.44;;;14.54;91.50
75418;BME280;63997;52.112;5.420;2023-08-31T07:32:34;101055.31;;;14.40;91.48
75418;BME280;63997;52.112;5.420;2023-08-31T07:35:00;101070.75;;;14.31;92.42
75418;BME280;63997;52.112;5.420;2023-08-31T07:37:29;101065.06;;;14.33;92.20
75418;BME280;63997;52.112;5.420;2023-08-31T07:39:58;101065.88;;;14.61;92.40
75418;BME280;63997;52.112;5.420;2023-08-31T07:42:25;101065.88;;;15.49;91.35
75418;BME280;63997;52.112;5.420;2023-08-31T07:44:52;101062.31;;;15.76;90.63
75418;BME280;63997;52.112;5.420;2023-08-31T07:47:18;101060.94;;;15.67;89.03
75418;BME280;63997;52.112;5.420;2023-08-31T07:49:45;101072.06;;;15.53;89.12
75418;BME280;63997;52.112;5.420;2023-08-31T07:52:11;101078.13;;;15.50;90.31
75418;BME280;63997;52.112;5.420;2023-08-31T07:54:38;101086.69;;;15.40;90.25
75418;BME280;63997;52.112;5.420;2023-08-31T07:57:04;101078.28;;;15.25;89.83
75418;BME280;63997;52.112;5.420;2023-08-31T07:59:31;101081.88;;;15.01;90.63
75418;BME280;63997;52.112;5.420;2023-08-31T08:01:57;101085.50;;;14.93;91.28
75418;BME280;63997;52.112;5.420;2023-08-31T08:04:24;101096.00;;;14.86;91.35
75418;BME280;63997;52.112;5.420;2023-08-31T08:06:52;101084.22;;;14.75;91.99
75418;BME280;63997;52.112;5.420;2023-08-31T08:09:18;101095.38;;;14.77;92.60
75418;BME280;63997;52.112;5.420;2023-08-31T08:11:45;101089.78;;;14.82;92.98
75418;BME280;63997;52.112;5.420;2023-08-31T08:14:11;101097.59;;;14.87;92.50
75418;BME280;63997;52.112;5.420;2023-08-31T08:16:38;101094.41;;;14.97;93.17
75418;BME280;63997;52.112;5.420;2023-08-31T08:19:06;101092.09;;;15.12;92.77
75418;BME280;63997;52.112;5.420;2023-08-31T08:21:32;101099.47;;;15.30;91.92
75418;BME280;63997;52.112;5.420;2023-08-31T08:23:59;101093.94;;;15.39;91.66
75418;BME280;63997;52.112;5.420;2023-08-31T08:26:25;101103.91;;;15.54;93.06
75418;BME280;63997;52.112;5.420;2023-08-31T08:28:52;101099.06;;;15.76;91.91
75418;BME280;63997;52.112;5.420;2023-08-31T08:31:18;101093.53;;;15.69;90.73
75418;BME280;63997;52.112;5.420;2023-08-31T08:33:45;101101.94;;;15.67;91.50
75418;BME280;63997;52.112;5.420;2023-08-31T08:36:11;101102.78;;;15.71;91.40
75418;BME280;63997;52.112;5.420;2023-08-31T08:38:38;101104.00;;;15.74;92.00
75418;BME280;63997;52.112;5.420;2023-08-31T08:41:05;101111.28;;;15.73;91.00
75418;BME280;63997;52.112;5.420;2023-08-31T08:43:35;101116.72;;;15.77;91.60
75418;BME280;63997;52.112;5.420;2023-08-31T08:46:05;101109.38;;;15.74;91.19
75418;BME280;63997;52.112;5.420;2023-08-31T08:48:34;101112.06;;;15.74;91.65
75418;BME280;63997;52.112;5.420;2023-08-31T08:51:04;101106.50;;;15.82;91.89
75418;BME280;63997;52.112;5.420;2023-08-31T08:53:30;101106.97;;;16.20;93.33
75418;BME280;63997;52.112;5.420;2023-08-31T08:55:58;101113.06;;;16.55;92.31
75418;BME280;63997;52.112;5.420;2023-08-31T08:58:24;101110.28;;;16.67;91.39
75418;BME280;63997;52.112;5.420;2023-08-31T09:00:52;101112.13;;;16.83;90.08
75418;BME280;63997;52.112;5.420;2023-08-31T09:03:21;101111.50;;;16.89;89.58
75418;BME280;63997;52.112;5.420;2023-08-31T09:05:51;101112.28;;;16.90;89.18
75418;BME280;63997;52.112;5.420;2023-08-31T09:08:25;101113.59;;;17.00;88.24
75418;BME280;63997;52.112;5.420;2023-08-31T09:10:55;101106.88;;;17.09;88.24
75418;BME280;63997;52.112;5.420;2023-08-31T09:13:29;101110.34;;;17.33;89.60
75418;BME280;63997;52.112;5.420;2023-08-31T09:16:00;101107.94;;;17.51;87.93
75418;BME280;63997;52.112;5.420;2023-08-31T09:18:28;101105.50;;;17.65;87.24
75418;BME280;63997;52.112;5.420;2023-08-31T09:20:56;101101.47;;;17.75;87.42
75418;BME280;63997;52.112;5.420;2023-08-31T09:23:24;101103.84;;;17.80;84.92
75418;BME280;63997;52.112;5.420;2023-08-31T09:25:55;101103.13;;;17.83;82.47
75418;BME280;63997;52.112;5.420;2023-08-31T09:28:24;101101.88;;;17.77;85.39
75418;BME280;63997;52.112;5.420;2023-08-31T09:31:04;101104.06;;;17.71;84.68
75418;BME280;63997;52.112;5.420;2023-08-31T09:33:30;101110.09;;;17.64;85.19
75418;BME280;63997;52.112;5.420;2023-08-31T09:35:59;101109.94;;;17.54;84.75
75418;BME280;63997;52.112;5.420;2023-08-31T09:38:26;101117.81;;;17.43;84.57
75418;BME280;63997;52.112;5.420;2023-08-31T09:41:03;101125.78;;;17.36;85.49
75418;BME280;63997;52.112;5.420;2023-08-31T09:43:29;101123.84;;;17.36;85.20
75418;BME280;63997;52.112;5.420;2023-08-31T09:45:56;101125.41;;;17.60;86.25
75418;BME280;63997;52.112;5.420;2023-08-31T09:48:23;101112.25;;;17.78;84.56
75418;BME280;63997;52.112;5.420;2023-08-31T09:50:51;101111.72;;;17.92;84.38
75418;BME280;63997;52.112;5.420;2023-08-31T09:53:19;101106.03;;;17.97;82.29
75418;BME280;63997;52.112;5.420;2023-08-31T09:55:47;101113.34;;;18.00;82.86
75418;BME280;63997;52.112;5.420;2023-08-31T09:58:21;101109.22;;;18.06;82.79
75418;BME280;63997;52.112;5.420;2023-08-31T10:00:49;101111.97;;;18.10;78.49
75418;BME280;63997;52.112;5.420;2023-08-31T10:03:16;101117.75;;;18.12;81.72
75418;BME280;63997;52.112;5.420;2023-08-31T10:05:47;101114.41;;;18.18;79.62
75418;BME280;63997;52.112;5.420;2023-08-31T10:08:15;101111.91;;;18.33;81.61
75418;BME280;63997;52.112;5.420;2023-08-31T10:10:42;101115.09;;;18.42;74.20
75418;BME280;63997;52.112;5.420;2023-08-31T10:13:09;101111.94;;;18.36;78.63
75418;BME280;63997;52.112;5.420;2023-08-31T10:15:43;101113.00;;;18.58;80.10
75418;BME280;63997;52.112;5.420;2023-08-31T10:18:09;101108.00;;;18.60;75.60
75418;BME280;63997;52.112;5.420;2023-08-31T10:20:36;101115.06;;;18.68;73.62
75418;BME280;63997;52.112;5.420;2023-08-31T10:23:04;101117.47;;;18.77;74.19
75418;BME280;63997;52.112;5.420;2023-08-31T10:28:27;101116.78;;;18.84;69.93
75418;BME280;63997;52.112;5.420;2023-08-31T10:31:02;101108.34;;;18.89;67.69
75418;BME280;63997;52.112;5.420;2023-08-31T10:33:33;101116.50;;;18.92;68.60
75418;BME280;63997;52.112;5.420;2023-08-31T10:36:01;101118.88;;;19.01;69.67
75418;BME280;63997;52.112;5.420;2023-08-31T10:38:31;101111.22;;;19.03;68.70
75418;BME280;63997;52.112;5.420;2023-08-31T10:46:35;101114.03;;;19.17;66.04
75418;BME280;63997;52.112;5.420;2023-08-31T10:51:39;101114.47;;;19.23;61.86
75418;BME280;63997;52.112;5.420;2023-08-31T10:54:10;101122.19;;;19.24;61.73
75418;BME280;63997;52.112;5.420;2023-08-31T10:59:45;101115.78;;;19.36;59.13
75418;BME280;63997;52.112;5.420;2023-08-31T11:02:37;101113.94;;;19.47;62.30
75418;BME280;63997;52.112;5.420;2023-08-31T11:05:15;101108.72;;;19.69;64.95
75418;BME280;63997;52.112;5.420;2023-08-31T11:07:50;101118.41;;;19.70;64.13
75418;BME280;63997;52.112;5.420;2023-08-31T11:10:24;101118.44;;;19.80;58.35
75418;BME280;63997;52.112;5.420;2023-08-31T11:12:55;101121.91;;;19.77;59.12
75418;BME280;63997;52.112;5.420;2023-08-31T11:15:25;101118.47;;;19.84;61.32
75418;BME280;63997;52.112;5.420;2023-08-31T11:17:53;101123.63;;;20.03;60.23
75418;BME280;63997;52.112;5.420;2023-08-31T11:20:22;101117.91;;;20.16;60.64
75418;BME280;63997;52.112;5.420;2023-08-31T11:22:50;101133.41;;;20.29;57.08
75418;BME280;63997;52.112;5.420;2023-08-31T11:25:20;101128.78;;;20.26;57.32
75418;BME280;63997;52.112;5.420;2023-08-31T11:27:55;101120.75;;;20.44;60.79
75418;BME280;63997;52.112;5.420;2023-08-31T11:30:22;101131.66;;;20.55;57.95
75418;BME280;63997;52.112;5.420;2023-08-31T11:32:52;101124.31;;;20.59;58.09
75418;BME280;63997;52.112;5.420;2023-08-31T11:35:23;101129.41;;;20.75;55.90
75418;BME280;63997;52.112;5.420;2023-08-31T11:37:55;101130.56;;;20.74;57.46
75418;BME280;63997;52.112;5.420;2023-08-31T11:40:21;101132.16;;;20.89;57.80
75418;BME280;63997;52.112;5.420;2023-08-31T11:42:49;101122.53;;;21.02;57.03
75418;BME280;63997;52.112;5.420;2023-08-31T11:45:18;101132.97;;;21.07;57.05
75418;BME280;63997;52.112;5.420;2023-08-31T11:47:45;101128.31;;;21.08;56.72
75418;BME280;63997;52.112;5.420;2023-08-31T11:50:14;101130.66;;;21.06;52.76
75418;BME280;63997;52.112;5.420;2023-08-31T11:52:42;101140.69;;;21.09;53.09
75418;BME280;63997;52.112;5.420;2023-08-31T11:55:12;101140.34;;;21.18;54.96
75418;BME280;63997;52.112;5.420;2023-08-31T11:57:39;101125.28;;;21.27;54.62
75418;BME280;63997;52.112;5.420;2023-08-31T12:00:06;101128.41;;;21.40;55.41
75418;BME280;63997;52.112;5.420;2023-08-31T12:02:36;101128.00;;;21.34;50.40
75418;BME280;63997;52.112;5.420;2023-08-31T12:05:02;101133.38;;;21.24;51.10
75418;BME280;63997;52.112;5.420;2023-08-31T12:07:32;101126.41;;;21.26;51.93
75418;BME280;63997;52.112;5.420;2023-08-31T12:10:05;101128.78;;;21.46;55.82
75418;BME280;63997;52.112;5.420;2023-08-31T12:12:31;101121.84;;;21.52;51.20
75418;BME280;63997;52.112;5.420;2023-08-31T12:15:02;101120.28;;;21.36;50.79
75418;BME280;63997;52.112;5.420;2023-08-31T12:17:30;101128.78;;;21.49;54.47
75418;BME280;63997;52.112;5.420;2023-08-31T12:20:04;101137.31;;;21.58;53.36
75418;BME280;63997;52.112;5.420;2023-08-31T12:22:34;101133.03;;;21.79;53.43
75418;BME280;63997;52.112;5.420;2023-08-31T12:25:26;101138.44;;;21.75;50.03
75418;BME280;63997;52.112;5.420;2023-08-31T12:28:18;101143.88;;;21.68;50.78
75418;BME280;63997;52.112;5.420;2023-08-31T12:31:08;101145.41;;;21.48;50.26
75418;BME280;63997;52.112;5.420;2023-08-31T12:33:35;101145.81;;;21.46;55.40
75418;BME280;63997;52.112;5.420;2023-08-31T12:36:01;101142.34;;;21.67;53.83
75418;BME280;63997;52.112;5.420;2023-08-31T12:38:30;101149.28;;;21.64;51.42
75418;BME280;63997;52.112;5.420;2023-08-31T12:40:57;101143.88;;;21.61;52.16
75418;BME280;63997;52.112;5.420;2023-08-31T12:43:24;101150.84;;;21.80;54.24
75418;BME280;63997;52.112;5.420;2023-08-31T12:45:51;101148.50;;;21.82;50.70
75418;BME280;63997;52.112;5.420;2023-08-31T12:48:17;101155.06;;;21.88;52.40
75418;BME280;63997;52.112;5.420;2023-08-31T12:50:44;101149.28;;;21.97;50.97
75418;BME280;63997;52.112;5.420;2023-08-31T12:53:10;101152.38;;;21.91;48.74
75418;BME280;63997;52.112;5.420;2023-08-31T12:55:37;101148.91;;;21.73;52.36
75418;BME280;63997;52.112;5.420;2023-08-31T12:58:04;101147.34;;;21.79;53.39
75418;BME280;63997;52.112;5.420;2023-08-31T13:00:30;101160.88;;;21.86;51.09
75418;BME280;63997;52.112;5.420;2023-08-31T13:03:03;101159.34;;;21.96;54.46
75418;BME280;63997;52.112;5.420;2023-08-31T13:05:32;101155.06;;;21.99;52.23
75418;BME280;63997;52.112;5.420;2023-08-31T13:07:59;101153.53;;;21.90;52.66
75418;BME280;63997;52.112;5.420;2023-08-31T13:10:26;101152.75;;;21.93;53.02
75418;BME280;63997;52.112;5.420;2023-08-31T13:12:52;101157.03;;;21.95;50.11